Terminal Aerodrome Forecast
Issued by NWS

Home | Current Version | Previous Version | Text Only | Print | Product List | Glossary On
Versions: 1 2 3 4 5 6 7 8 9 10 11 12 13 14 15 16
000
FTUS44 KOUN 290953 AAA
TAFPNC
TAF AMD
KPNC 290953Z 2910/3006 34010KT 6SM -SHRA BR BKN008 OVC070
      TEMPO 2910/2914 3SM -TSRA BR OVC008CB
     FM291500 14012KT P6SM OVC012
      TEMPO 2915/2919 -SHRA
     FM291900 20014KT P6SM BKN030
     FM300300 29007KT 6SM BR OVC008=

USA.gov is the U.S. government's official web portal to all federal, state and local government web resources and services.